Pagina principale
METAR-TAF:

METAR-TAF

Aeroporti :

Mafikeng, Sudafrica

latitudine: 25-47S, longitudine: 025-32E, altezza: 1281 m

Osservazione

Il bollettino è stato emesso 29 minuti fa, alle 06:36 UTC
Vento 6 kt da nord-est
Temperature 24°C
Umidità 10%
Pressione 1020 hPa
Visibilità 10 km o più
nessuna nube inferiore a 1500 m e nessun cumulonembo

METAR: FAMM 190636Z 04006KT CAVOK 24/M10 Q1020 NOSIG

Ora: 09:05 (07:05 UTC)

Previsione

Il bollettino è stato emesso 4 ore e 5 minuti fa, alle 03:00 UTC
Previsione valida dal 19 alle 04 UTC al 19 alle 15 UTC
Vento 5 kt da est/sud-est
Visibilità 10 km o più
nessuna nube inferiore a 1500 m e nessun cumulonembo
Evoluzione graduale
dal 19 alle 07 UTC al 19 alle 09 UTC
Vento 8 kt da est/nord-est
Evoluzione graduale
dal 19 alle 10 UTC al 19 alle 12 UTC
Vento 13 kt da nord/nord-ovest

TAF: FAMM 190300Z 1904/1915 12005KT CAVOK BECMG 1907/1909 06008KT BECMG 1910/1912 33013KT TX34/1912Z TN17/1904Z

Osservazioni e previsioni meteorologiche di più di 4000 aeroporti (messaggi METAR e TAF).

Le stazioni disponibili sono rappresentate dai dischi gialli e rossi sulla carta.

Puntare il mouse per vedere il nome della stazione.

Clicca sopra per visualizzare le osservazioni e previsioni meteorologiche.

Per cambiare la mappa : fare clic sui pulsanti verdi con una croce nera per ingrandire, il pulsante verde con un trattino per diminuire, o sulla freccia verde per le mappe adiacenti.


METAR-TAF: